KBRG/BRG METAR and TAF weather

Enter ICAO airport designator
Station Type Date Time Source
KBRG METAR 2020/07/06 02:55 UTC NOAA

KBRG 060255Z AUTO 13008KT 10SM CLR 29/08 A3002 RMK AO2 T02920078


Station Type Date Time Source
KBRG Decoded METAR 2020/07/06 02:55 UTC NOAA

Station name not available
Jul 05, 2020 - 10:55 PM EDT / 2020.07.06 0255 UTC
Wind: from the SE (130 degrees) at 9 MPH (8 KT):0
Visibility: 10 mile(s):0
Sky conditions: clear
Temperature: 84.6 F (29.2 C)
Dew Point: 46.0 F (7.8 C)
Relative Humidity: 26%
Pressure (altimeter): 30.02 in. Hg (1016 hPa)
ob: KBRG 060255Z AUTO 13008KT 10SM CLR 29/08 A3002 RMK AO2 T02920078
cycle: 3

Station Type Date Time Source
KBRG TAF 2012/07/03 12:12 UTC NOAA

TAF SKBRG 031000Z 031212 VRB02KT 9999 FEW017 SCT080
TEMPO 0312/0317 11005KT VCTS - DZRAFEW015CB BKN070
TEMPO 0318/0323 TSRA FEW017CB BKN070
TEMPO 0400/0402 VCTS FEW020CB
TEMPO 0402/0406 -DZ SCT015CB
TEMPO 0408/0412 00000KT 5000 BCFG FEW005 TX23/0319Z TN10/0411Z

Example: see airport list